Time;durP1;ratioP1;P1;durP2;ratioP2;P2;SDS_P1;SDS_P2;PMS_P1;PMS_P2;Temp;Humidity;BMP_temperature;BMP_pressure;BME280_temperature;BME280_humidity;BME280_pressure;Samples;Min_cycle;Max_cycle;Signal;HPM_P1;HPM_P2
2023/06/29 00:00:15;;;;;;;11.82;6.85;;;20.70;99.90;;;;;;5014555;28;20018;-58
2023/06/29 00:02:41;;;;;;;12.75;7.88;;;20.70;99.90;;;;;;5013998;28;20547;-57
2023/06/29 00:05:08;;;;;;;13.93;7.53;;;20.60;99.90;;;;;;5014059;28;20022;-58
2023/06/29 00:07:34;;;;;;;8.18;4.20;;;20.60;99.90;;;;;;5014115;28;20041;-58
2023/06/29 00:10:00;;;;;;;12.02;7.75;;;20.60;99.90;;;;;;5014222;28;20033;-58
2023/06/29 00:12:29;;;;;;;14.18;6.72;;;20.60;99.90;;;;;;5013666;28;20495;-59
2023/06/29 00:14:55;;;;;;;11.15;6.50;;;20.60;99.90;;;;;;5014789;28;20030;-57
2023/06/29 00:17:21;;;;;;;14.57;6.70;;;20.60;99.90;;;;;;5014489;28;20471;-57
2023/06/29 00:19:47;;;;;;;13.73;8.30;;;20.60;99.90;;;;;;5014841;28;20108;-57
2023/06/29 00:22:14;;;;;;;13.60;6.50;;;20.60;99.90;;;;;;5015021;28;20411;-58
2023/06/29 00:24:43;;;;;;;17.77;7.63;;;20.60;99.90;;;;;;5014777;28;20021;-57
2023/06/29 00:27:12;;;;;;;12.45;6.25;;;20.60;99.90;;;;;;5014900;28;20026;-59
2023/06/29 00:29:42;;;;;;;14.70;7.30;;;20.60;99.90;;;;;;5014850;28;20080;-58
2023/06/29 00:32:09;;;;;;;15.45;7.40;;;20.60;99.90;;;;;;5014749;28;20026;-60
2023/06/29 00:34:34;;;;;;;13.53;7.67;;;20.60;99.90;;;;;;5014573;28;20022;-59
2023/06/29 00:37:00;;;;;;;14.90;7.07;;;20.60;99.90;;;;;;5014487;28;20382;-63
2023/06/29 00:39:26;;;;;;;20.15;8.27;;;20.60;99.90;;;;;;5014422;28;20582;-58
2023/06/29 00:41:55;;;;;;;16.08;6.97;;;20.60;99.90;;;;;;5014223;28;20029;-58
2023/06/29 00:44:22;;;;;;;12.43;7.93;;;20.60;99.90;;;;;;5014355;28;20025;-58
2023/06/29 00:46:49;;;;;;;13.25;7.07;;;20.70;99.90;;;;;;5014366;28;20036;-58
2023/06/29 00:49:15;;;;;;;;;;;20.70;99.90;;;;;;5014723;28;20501;-58
2023/06/29 00:51:41;;;;;;;11.48;7.10;;;20.70;99.90;;;;;;5014178;28;19996;-58
2023/06/29 00:54:07;;;;;;;14.10;6.93;;;20.70;99.90;;;;;;5014056;28;20018;-58
2023/06/29 00:56:34;;;;;;;12.52;6.75;;;20.70;99.90;;;;;;5014132;28;20036;-58
2023/06/29 00:59:00;;;;;;;11.35;6.30;;;20.70;99.90;;;;;;5013992;28;20050;-58
2023/06/29 01:01:27;;;;;;;19.38;8.13;;;20.70;99.90;;;;;;5011822;28;20493;-58
2023/06/29 01:03:55;;;;;;;13.40;6.28;;;20.70;99.90;;;;;;5012059;28;20398;-58
2023/06/29 01:06:27;;;;;;;14.65;7.82;;;20.60;99.90;;;;;;5012117;28;20026;-56
2023/06/29 01:08:54;;;;;;;14.38;7.30;;;20.70;99.90;;;;;;5012353;28;20033;-59
2023/06/29 01:11:21;;;;;;;13.93;7.35;;;20.70;99.90;;;;;;5010511;28;20471;-57
2023/06/29 01:13:47;;;;;;;18.23;8.77;;;20.70;99.90;;;;;;5012058;28;20036;-58
2023/06/29 01:16:15;;;;;;;16.90;7.63;;;20.70;99.90;;;;;;5012371;28;20537;-57
2023/06/29 01:18:43;;;;;;;14.95;8.52;;;20.70;99.90;;;;;;5013139;28;20141;-57
2023/06/29 01:21:11;;;;;;;13.93;6.32;;;20.70;99.90;;;;;;5011837;28;20097;-59
2023/06/29 01:23:39;;;;;;;14.95;6.65;;;20.70;99.90;;;;;;5012077;28;20088;-60
2023/06/29 01:26:08;;;;;;;13.38;7.47;;;20.70;99.90;;;;;;5012565;28;20517;-58
2023/06/29 01:28:38;;;;;;;16.88;7.95;;;20.70;99.90;;;;;;5013780;28;20045;-57
2023/06/29 01:31:06;;;;;;;13.43;6.82;;;20.70;99.90;;;;;;5013398;28;20029;-59
2023/06/29 01:33:33;;;;;;;19.90;8.57;;;20.70;99.90;;;;;;4999079;28;20026;-58
2023/06/29 01:36:34;;;;;;;17.05;8.45;;;20.70;99.90;;;;;;5012573;28;20033;-57
2023/06/29 01:39:07;;;;;;;15.80;8.23;;;20.70;99.90;;;;;;5012521;28;20038;-59
2023/06/29 01:41:40;;;;;;;13.35;7.38;;;20.60;99.90;;;;;;5012641;28;20042;-61
2023/06/29 01:44:08;;;;;;;11.30;6.72;;;20.70;99.90;;;;;;5011682;28;20053;-58
2023/06/29 01:46:35;;;;;;;15.25;7.70;;;20.70;99.90;;;;;;5011548;28;20033;-57
2023/06/29 01:49:01;;;;;;;24.88;9.38;;;20.70;99.90;;;;;;5011474;28;20056;-58
2023/06/29 01:51:27;;;;;;;17.80;8.52;;;20.70;99.90;;;;;;5012237;28;20471;-58
2023/06/29 01:53:53;;;;;;;16.23;8.80;;;20.70;99.90;;;;;;5012190;28;20037;-58
2023/06/29 01:56:19;;;;;;;16.02;8.25;;;20.70;99.90;;;;;;5012106;28;20060;-58
2023/06/29 01:58:44;;;;;;;17.05;8.00;;;20.70;99.90;;;;;;5012489;28;20053;-58
2023/06/29 02:01:10;;;;;;;19.50;8.90;;;20.60;99.90;;;;;;5012082;28;20030;-58
2023/06/29 02:03:36;;;;;;;15.95;9.27;;;20.70;99.90;;;;;;5010963;28;20030;-58
2023/06/29 02:06:01;;;;;;;19.90;8.82;;;20.70;99.90;;;;;;5011060;28;20100;-57
2023/06/29 02:08:27;;;;;;;12.55;7.28;;;20.70;99.90;;;;;;5012849;28;20033;-56
2023/06/29 02:10:52;;;;;;;20.60;9.95;;;20.70;99.90;;;;;;5011393;28;20044;-58
2023/06/29 02:13:18;;;;;;;14.40;8.20;;;20.70;99.90;;;;;;5009581;28;20087;-58
2023/06/29 02:15:44;;;;;;;14.88;7.97;;;20.70;99.90;;;;;;5012658;28;20034;-58
2023/06/29 02:18:09;;;;;;;18.85;9.07;;;20.70;99.90;;;;;;5017081;28;20042;-58
2023/06/29 02:20:35;;;;;;;19.10;8.73;;;20.70;99.90;;;;;;5019429;28;20029;-59
2023/06/29 02:23:01;;;;;;;19.58;9.15;;;20.70;99.90;;;;;;5019303;28;20021;-58
2023/06/29 02:25:26;;;;;;;17.52;8.23;;;20.70;99.90;;;;;;5019272;28;20024;-58
2023/06/29 02:27:52;;;;;;;16.25;8.18;;;20.70;99.90;;;;;;5019368;28;20112;-58
2023/06/29 02:30:18;;;;;;;15.57;8.68;;;20.70;99.90;;;;;;5019380;28;20018;-58
2023/06/29 02:32:43;;;;;;;18.05;8.75;;;20.60;99.90;;;;;;5019174;28;20029;-57
2023/06/29 02:35:09;;;;;;;17.50;8.15;;;20.60;99.90;;;;;;5019334;28;20387;-58
2023/06/29 02:37:34;;;;;;;17.88;8.63;;;20.60;99.90;;;;;;5019280;28;20030;-57
2023/06/29 02:40:00;;;;;;;21.48;9.23;;;20.60;99.90;;;;;;5017505;28;20045;-58
2023/06/29 02:42:26;;;;;;;18.95;9.07;;;20.60;99.90;;;;;;5019244;28;20386;-55
2023/06/29 02:44:52;;;;;;;18.42;9.63;;;20.60;99.90;;;;;;5019225;28;20104;-55
2023/06/29 02:47:17;;;;;;;21.33;10.75;;;20.60;99.90;;;;;;5019182;28;20552;-55
2023/06/29 02:49:43;;;;;;;20.52;9.63;;;20.60;99.90;;;;;;5019201;28;20478;-55
2023/06/29 02:52:09;;;;;;;18.83;8.73;;;20.50;99.90;;;;;;5019102;28;20053;-51
2023/06/29 02:54:34;;;;;;;21.08;8.18;;;20.50;99.90;;;;;;5019037;28;20084;-54
2023/06/29 02:57:00;;;;;;;18.75;8.98;;;20.50;99.90;;;;;;5019011;28;20028;-55
2023/06/29 02:59:25;;;;;;;17.42;9.90;;;20.50;99.90;;;;;;5019124;28;20076;-54
2023/06/29 03:01:51;;;;;;;18.33;9.45;;;20.50;99.90;;;;;;5019338;28;20029;-57
2023/06/29 03:04:17;;;;;;;22.27;9.63;;;20.50;99.90;;;;;;5018367;28;20390;-55
2023/06/29 03:06:42;;;;;;;21.23;9.23;;;20.50;99.90;;;;;;5018134;28;20030;-58
2023/06/29 03:09:08;;;;;;;21.42;9.95;;;20.40;99.90;;;;;;5018146;28;20034;-57
2023/06/29 03:11:34;;;;;;;18.50;8.98;;;20.40;99.90;;;;;;5017888;28;20029;-57
2023/06/29 03:13:59;;;;;;;22.08;9.40;;;20.40;99.90;;;;;;5018604;28;20026;-57
2023/06/29 03:16:25;;;;;;;23.08;10.40;;;20.40;99.90;;;;;;5017431;28;20033;-58
2023/06/29 03:18:51;;;;;;;17.25;9.10;;;20.40;99.90;;;;;;5017259;28;20073;-54
2023/06/29 03:21:19;;;;;;;26.95;11.63;;;20.40;99.90;;;;;;5017993;28;20491;-58
2023/06/29 03:23:45;;;;;;;17.73;10.30;;;20.40;99.90;;;;;;5018663;28;20022;-58
2023/06/29 03:26:11;;;;;;;19.80;10.35;;;20.50;99.90;;;;;;5017304;28;20116;-58
2023/06/29 03:28:37;;;;;;;19.17;10.43;;;20.40;99.90;;;;;;5016377;28;20443;-57
2023/06/29 03:31:02;;;;;;;24.42;11.18;;;20.40;99.90;;;;;;5014327;28;20029;-59
2023/06/29 03:33:28;;;;;;;19.90;11.55;;;20.40;99.90;;;;;;5013336;28;20402;-58
2023/06/29 03:35:54;;;;;;;22.75;11.38;;;20.40;99.90;;;;;;5015599;28;20544;-56
2023/06/29 03:38:19;;;;;;;25.23;11.05;;;20.30;99.90;;;;;;5014442;28;20034;-58
2023/06/29 03:40:45;;;;;;;23.88;10.95;;;20.30;99.90;;;;;;5013536;28;20033;-58
2023/06/29 03:43:10;;;;;;;19.42;10.20;;;20.20;99.90;;;;;;5015006;28;20034;-60
2023/06/29 03:45:36;;;;;;;23.80;11.05;;;20.30;99.90;;;;;;5014687;28;20438;-59
2023/06/29 03:48:02;;;;;;;24.45;11.43;;;20.20;99.90;;;;;;5012918;28;20540;-57
2023/06/29 03:50:27;;;;;;;21.98;10.27;;;20.20;99.90;;;;;;5015376;28;20022;-58
2023/06/29 03:52:53;;;;;;;20.88;10.98;;;20.20;99.90;;;;;;5014226;28;20076;-59
2023/06/29 03:55:19;;;;;;;25.65;11.38;;;20.20;99.90;;;;;;5015173;28;20481;-58
2023/06/29 03:57:45;;;;;;;18.45;9.07;;;20.20;99.90;;;;;;5015235;28;20022;-57
2023/06/29 04:00:11;;;;;;;23.33;11.02;;;20.20;99.90;;;;;;5015295;28;20014;-57
2023/06/29 04:02:36;;;;;;;23.13;10.75;;;20.20;99.90;;;;;;5015409;28;20033;-58
2023/06/29 04:05:03;;;;;;;23.08;10.98;;;20.20;99.90;;;;;;5014833;28;20025;-58
2023/06/29 04:07:29;;;;;;;25.98;12.05;;;20.20;99.90;;;;;;5015134;28;20030;-58
2023/06/29 04:09:54;;;;;;;20.73;10.48;;;20.20;99.90;;;;;;5013723;28;20018;-58
2023/06/29 04:12:20;;;;;;;26.35;11.18;;;20.20;99.90;;;;;;5015161;28;20026;-58
2023/06/29 04:14:46;;;;;;;24.30;11.30;;;20.20;99.90;;;;;;5015193;28;20148;-58
2023/06/29 04:17:11;;;;;;;22.55;11.63;;;20.20;99.90;;;;;;5014873;28;20026;-58
2023/06/29 04:19:37;;;;;;;29.00;13.05;;;20.20;99.90;;;;;;5014692;28;20041;-57
2023/06/29 04:22:03;;;;;;;20.10;10.25;;;20.20;99.90;;;;;;5014651;28;20426;-57
2023/06/29 04:24:28;;;;;;;24.75;11.18;;;20.20;99.90;;;;;;5014703;28;20108;-59
2023/06/29 04:26:54;;;;;;;23.63;11.45;;;20.30;99.90;;;;;;5014732;28;20470;-57
2023/06/29 04:29:21;;;;;;;19.60;9.90;;;20.30;99.90;;;;;;5014939;28;20390;-59
2023/06/29 04:31:46;;;;;;;20.30;10.70;;;20.20;99.90;;;;;;5014594;28;20108;-57
2023/06/29 04:34:16;;;;;;;24.10;10.90;;;20.30;99.90;;;;;;5014588;28;20511;-58
2023/06/29 04:36:45;;;;;;;18.42;9.40;;;20.30;99.90;;;;;;5014543;28;20025;-57
2023/06/29 04:39:15;;;;;;;19.67;10.50;;;20.30;99.90;;;;;;5014322;28;20026;-59
2023/06/29 04:41:41;;;;;;;20.73;10.50;;;20.30;99.90;;;;;;5014023;28;20029;-57
2023/06/29 04:44:10;;;;;;;28.33;11.93;;;20.30;99.90;;;;;;5014370;28;20554;-58
2023/06/29 04:46:39;;;;;;;27.95;11.50;;;20.30;99.90;;;;;;5014232;28;20032;-57
2023/06/29 04:49:06;;;;;;;17.13;8.88;;;20.30;99.90;;;;;;5014335;28;20535;-58
2023/06/29 04:51:36;;;;;;;22.38;11.70;;;20.40;99.90;;;;;;5014492;28;20026;-58
2023/06/29 04:54:05;;;;;;;26.08;12.15;;;20.40;99.90;;;;;;5014143;28;20022;-58
2023/06/29 04:56:31;;;;;;;22.98;11.98;;;20.40;99.90;;;;;;5014012;28;20029;-58
2023/06/29 04:58:57;;;;;;;23.05;11.55;;;20.40;99.90;;;;;;5014119;28;20018;-59
2023/06/29 05:01:23;;;;;;;20.17;10.37;;;20.40;99.90;;;;;;5011079;28;20038;-58
2023/06/29 05:03:49;;;;;;;25.48;10.85;;;20.40;99.90;;;;;;5012208;28;20029;-57
2023/06/29 05:06:15;;;;;;;23.35;11.75;;;20.40;99.90;;;;;;5012855;28;20062;-57
2023/06/29 05:08:40;;;;;;;25.98;12.23;;;20.40;99.90;;;;;;5013875;28;20092;-58
2023/06/29 05:11:06;;;;;;;26.95;11.23;;;20.50;99.90;;;;;;5012510;28;20473;-59
2023/06/29 05:13:35;;;;;;;22.48;12.30;;;20.40;99.90;;;;;;5013673;28;20022;-56
2023/06/29 05:16:04;;;;;;;21.92;10.57;;;20.40;99.90;;;;;;5014054;28;20470;-56
2023/06/29 05:18:30;;;;;;;29.45;11.18;;;20.40;99.90;;;;;;5012368;28;20046;-56
2023/06/29 05:20:57;;;;;;;23.88;11.60;;;20.40;99.90;;;;;;5013737;28;20391;-57
2023/06/29 05:23:23;;;;;;;25.00;11.40;;;20.50;99.90;;;;;;5012260;28;20032;-56
2023/06/29 05:25:49;;;;;;;27.25;11.95;;;20.40;99.90;;;;;;5013656;28;20474;-57
2023/06/29 05:28:15;;;;;;;25.50;12.13;;;20.40;99.90;;;;;;5013604;28;20498;-56
2023/06/29 05:30:40;;;;;;;28.45;12.05;;;20.40;99.90;;;;;;5012115;28;20018;-56
2023/06/29 05:33:06;;;;;;;28.20;11.98;;;20.40;99.90;;;;;;5013486;28;20391;-57
2023/06/29 05:35:34;;;;;;;21.80;11.40;;;20.50;99.90;;;;;;5013730;28;20018;-56
2023/06/29 05:37:59;;;;;;;32.67;13.30;;;20.50;99.90;;;;;;5013169;28;20022;-56
2023/06/29 05:40:26;;;;;;;29.38;13.23;;;20.50;99.90;;;;;;5012140;28;20021;-56
2023/06/29 05:42:51;;;;;;;26.15;12.20;;;20.50;99.90;;;;;;5013666;28;20418;-56
2023/06/29 05:45:17;;;;;;;29.42;12.55;;;20.50;99.90;;;;;;5012070;28;20026;-57
2023/06/29 05:47:43;;;;;;;30.40;13.00;;;20.50;99.90;;;;;;5013204;28;20119;-57
2023/06/29 05:50:09;;;;;;;24.30;12.82;;;20.40;99.90;;;;;;5013131;28;20472;-57
2023/06/29 05:52:34;;;;;;;23.70;12.05;;;20.40;99.90;;;;;;5012501;28;20422;-58
2023/06/29 05:55:02;;;;;;;27.42;13.20;;;20.40;99.90;;;;;;5013074;28;20439;-56
2023/06/29 05:57:27;;;;;;;28.23;12.60;;;20.40;99.90;;;;;;5013188;28;20525;-57
2023/06/29 05:59:53;;;;;;;25.73;12.93;;;20.30;99.90;;;;;;5013046;28;20018;-57
2023/06/29 06:02:19;;;;;;;25.17;12.13;;;20.40;99.90;;;;;;5013100;28;20104;-58
2023/06/29 06:04:45;;;;;;;23.75;12.18;;;20.30;99.90;;;;;;5012897;28;20018;-58
2023/06/29 06:07:15;;;;;;;26.77;13.93;;;20.30;99.90;;;;;;5012238;28;20160;-57
2023/06/29 06:09:41;;;;;;;27.85;13.07;;;20.30;99.90;;;;;;5012360;28;20022;-58
2023/06/29 06:12:07;;;;;;;24.35;11.73;;;20.40;99.90;;;;;;5013143;28;20374;-59
2023/06/29 06:14:32;;;;;;;33.50;14.10;;;20.40;99.90;;;;;;5011590;28;20109;-57
2023/06/29 06:16:58;;;;;;;28.17;13.68;;;20.40;99.90;;;;;;5013203;28;20029;-58
2023/06/29 06:19:24;;;;;;;24.83;12.02;;;20.50;99.90;;;;;;5012758;28;20042;-55
2023/06/29 06:21:50;;;;;;;27.73;13.23;;;20.50;99.90;;;;;;5012771;28;20522;-57
2023/06/29 06:24:15;;;;;;;23.55;12.20;;;20.60;99.90;;;;;;5012738;28;20092;-59
2023/06/29 06:26:41;;;;;;;26.88;13.43;;;20.60;99.90;;;;;;5012793;28;20025;-56
2023/06/29 06:29:06;;;;;;;31.45;13.30;;;20.60;99.90;;;;;;5012820;28;20032;-58
2023/06/29 06:31:32;;;;;;;27.13;12.77;;;20.50;99.90;;;;;;5011717;28;20034;-57
2023/06/29 06:33:58;;;;;;;28.48;13.23;;;20.50;99.90;;;;;;5012743;28;20018;-57
2023/06/29 06:36:26;;;;;;;27.42;11.85;;;20.50;99.90;;;;;;5012718;28;20022;-59
2023/06/29 06:38:52;;;;;;;32.75;13.18;;;20.50;99.90;;;;;;5012839;28;20517;-57
2023/06/29 06:41:18;;;;;;;30.73;13.88;;;20.50;99.90;;;;;;5011493;28;20117;-57
2023/06/29 06:43:43;;;;;;;26.38;13.20;;;20.60;99.90;;;;;;5012755;28;20030;-57
2023/06/29 06:46:09;;;;;;;29.00;13.55;;;20.60;99.90;;;;;;5012648;28;20026;-59
2023/06/29 06:48:34;;;;;;;31.30;13.40;;;20.60;99.90;;;;;;5012553;28;20390;-61
2023/06/29 06:51:00;;;;;;;30.50;13.38;;;20.60;99.90;;;;;;5012527;28;20509;-57
2023/06/29 06:53:26;;;;;;;23.85;12.23;;;20.60;99.90;;;;;;5012863;28;20022;-58
2023/06/29 06:55:52;;;;;;;26.58;13.18;;;20.50;99.90;;;;;;5012452;28;20033;-57
2023/06/29 06:58:17;;;;;;;26.40;13.45;;;20.60;99.90;;;;;;5012513;28;20025;-58
2023/06/29 07:00:43;;;;;;;27.85;12.85;;;20.70;99.90;;;;;;5012543;28;20479;-57
2023/06/29 07:03:09;;;;;;;29.67;13.95;;;20.70;99.90;;;;;;5013051;28;20049;-60
2023/06/29 07:05:34;;;;;;;28.77;13.02;;;20.70;99.90;;;;;;5016529;28;20072;-59
2023/06/29 07:08:00;;;;;;;33.53;14.35;;;20.80;99.90;;;;;;5016445;28;20022;-58
2023/06/29 07:10:26;;;;;;;27.23;13.07;;;20.80;99.90;;;;;;5013282;28;20049;-57
2023/06/29 07:12:51;;;;;;;30.83;13.60;;;20.80;99.90;;;;;;5013016;28;20094;-58
2023/06/29 07:15:17;;;;;;;28.42;13.57;;;20.80;99.90;;;;;;5014357;28;20101;-58
2023/06/29 07:17:43;;;;;;;31.98;14.02;;;20.80;99.90;;;;;;5015718;28;20053;-60
2023/06/29 07:20:09;;;;;;;32.03;13.35;;;20.80;99.90;;;;;;5013615;28;20026;-57
2023/06/29 07:22:36;;;;;;;;;;;20.80;99.90;;;;;;5013906;28;20093;-58
2023/06/29 07:25:03;;;;;;;29.85;14.52;;;20.90;99.90;;;;;;5014795;28;19913;-58
2023/06/29 07:27:28;;;;;;;29.90;13.68;;;21.00;99.90;;;;;;5012713;28;20070;-57
2023/06/29 07:29:54;;;;;;;28.90;13.68;;;21.00;99.90;;;;;;5016081;28;20022;-59
2023/06/29 07:32:20;;;;;;;31.50;15.25;;;21.00;99.90;;;;;;5015552;28;20049;-57
2023/06/29 07:34:45;;;;;;;35.53;14.98;;;21.00;99.90;;;;;;5015600;28;20048;-59
2023/06/29 07:37:11;;;;;;;32.00;14.93;;;21.00;99.90;;;;;;5015509;28;20029;-58
2023/06/29 07:39:36;;;;;;;29.40;14.25;;;21.10;99.90;;;;;;5015594;28;20386;-59
2023/06/29 07:42:02;;;;;;;33.38;14.48;;;21.10;99.90;;;;;;5015450;28;20501;-58
2023/06/29 07:44:28;;;;;;;28.15;13.57;;;21.10;99.90;;;;;;5015489;28;20475;-59
2023/06/29 07:46:54;;;;;;;27.58;13.75;;;21.10;99.90;;;;;;5014249;28;20467;-55
2023/06/29 07:49:21;;;;;;;26.52;13.00;;;21.20;99.90;;;;;;5013653;28;20471;-57
2023/06/29 07:51:47;;;;;;;30.23;13.68;;;21.20;99.90;;;;;;5015018;28;20036;-58
2023/06/29 07:54:13;;;;;;;29.30;14.75;;;21.30;99.90;;;;;;5015225;28;20104;-57
2023/06/29 07:56:38;;;;;;;30.42;13.90;;;21.40;99.90;;;;;;5015840;28;20068;-55
2023/06/29 07:59:04;;;;;;;29.40;14.30;;;21.50;99.90;;;;;;5015256;28;20097;-59
2023/06/29 08:01:30;;;;;;;29.50;13.75;;;21.60;99.90;;;;;;5010802;28;20045;-58
2023/06/29 08:03:56;;;;;;;25.05;13.38;;;21.60;99.90;;;;;;5015568;28;20424;-58
2023/06/29 08:06:22;;;;;;;31.38;13.75;;;21.70;99.90;;;;;;5022731;28;20033;-58
2023/06/29 08:08:48;;;;;;;29.95;13.80;;;21.80;99.90;;;;;;5014709;28;20076;-59
2023/06/29 08:11:14;;;;;;;29.10;14.13;;;21.90;99.90;;;;;;5014950;28;20049;-58
2023/06/29 08:13:40;;;;;;;30.33;14.57;;;21.90;99.90;;;;;;5012069;28;20689;-58
2023/06/29 08:16:06;;;;;;;31.50;14.63;;;22.00;99.90;;;;;;5012696;28;20442;-59
2023/06/29 08:18:32;;;;;;;26.80;13.40;;;22.00;99.90;;;;;;5011349;28;20069;-58
2023/06/29 08:20:58;;;;;;;26.02;13.75;;;22.00;99.90;;;;;;5015065;28;20026;-57
2023/06/29 08:23:23;;;;;;;33.17;14.90;;;22.00;99.90;;;;;;5011862;28;20058;-57
2023/06/29 08:25:49;;;;;;;26.48;14.20;;;21.90;99.90;;;;;;5012175;28;20025;-58
2023/06/29 08:28:15;;;;;;;26.17;13.02;;;21.90;99.90;;;;;;5014666;28;20026;-58
2023/06/29 08:30:40;;;;;;;29.40;14.93;;;21.80;99.90;;;;;;5013428;28;20068;-58
2023/06/29 08:33:06;;;;;;;29.77;15.32;;;21.90;99.90;;;;;;5014530;28;20022;-57
2023/06/29 08:35:31;;;;;;;27.13;14.23;;;22.10;99.90;;;;;;5014554;28;20018;-59
2023/06/29 08:37:57;;;;;;;28.58;14.27;;;22.40;99.90;;;;;;5014494;28;20022;-59
2023/06/29 08:40:25;;;;;;;23.98;12.57;;;22.50;99.90;;;;;;5014429;28;20028;-59
2023/06/29 08:42:51;;;;;;;27.08;13.15;;;22.70;99.90;;;;;;5011893;28;20022;-59
2023/06/29 08:45:17;;;;;;;26.13;14.02;;;23.20;99.90;;;;;;5013149;28;20030;-58
2023/06/29 08:47:44;;;;;;;27.73;15.25;;;23.60;99.90;;;;;;5014251;28;20033;-59
2023/06/29 08:50:10;;;;;;;28.92;15.40;;;24.10;99.90;;;;;;5014249;28;20029;-60
2023/06/29 08:52:37;;;;;;;32.20;14.60;;;24.50;99.90;;;;;;5014163;28;20026;-61
2023/06/29 08:55:03;;;;;;;30.75;14.80;;;24.80;99.90;;;;;;5014253;28;20076;-61
2023/06/29 08:57:31;;;;;;;26.50;15.57;;;25.00;99.90;;;;;;5013939;28;20022;-58
2023/06/29 09:00:02;;;;;;;23.58;13.57;;;25.00;99.90;;;;;;5013151;28;20352;-58
2023/06/29 09:02:28;;;;;;;28.45;14.18;;;24.80;99.90;;;;;;5014395;28;20061;-61
2023/06/29 09:04:55;;;;;;;28.80;14.75;;;24.60;99.90;;;;;;5012877;28;20356;-60
2023/06/29 09:07:21;;;;;;;29.17;14.52;;;24.50;99.90;;;;;;5014240;28;20500;-60
2023/06/29 09:09:47;;;;;;;31.95;15.05;;;24.50;99.90;;;;;;5013461;28;20018;-60
2023/06/29 09:12:12;;;;;;;26.13;13.57;;;24.40;99.90;;;;;;5011820;28;20029;-58
2023/06/29 09:14:44;;;;;;;33.88;15.15;;;24.40;99.90;;;;;;5012864;28;20112;-60
2023/06/29 09:17:17;;;;;;;24.27;13.10;;;24.50;99.90;;;;;;5011795;28;20033;-59
2023/06/29 09:19:56;;;;;;;27.88;13.82;;;24.40;99.90;;;;;;5012517;28;20034;-58
2023/06/29 09:22:25;;;;;;;26.20;13.95;;;24.40;99.90;;;;;;5003561;28;20025;-60
2023/06/29 09:24:58;;;;;;;26.20;15.13;;;24.40;99.90;;;;;;5013810;28;20030;-60
2023/06/29 09:27:25;;;;;;;24.58;13.65;;;24.20;99.90;;;;;;5012658;28;20470;-60
2023/06/29 09:29:52;;;;;;;;;;;24.00;99.90;;;;;;5013836;28;20041;-58
2023/06/29 09:32:18;;;;;;;24.75;13.05;;;23.90;99.90;;;;;;5012347;28;19995;-59
2023/06/29 09:34:48;;;;;;;25.10;13.25;;;23.90;99.90;;;;;;5013465;28;20113;-60
2023/06/29 09:37:17;;;;;;;26.35;14.45;;;23.80;99.90;;;;;;5013482;28;20478;-61
2023/06/29 09:40:09;;;;;;;28.48;13.35;;;23.60;99.90;;;;;;5013600;28;20390;-59
2023/06/29 09:42:38;;;;;;;20.95;12.65;;;23.60;99.90;;;;;;5013340;28;20030;-59
2023/06/29 09:45:11;;;;;;;20.05;11.98;;;23.50;99.90;;;;;;5013144;28;20121;-59
2023/06/29 09:47:40;;;;;;;24.58;13.23;;;23.50;99.90;;;;;;5013616;28;20038;-58
2023/06/29 09:50:20;;;;;;;21.65;12.10;;;23.50;99.90;;;;;;5011328;28;20529;-58
2023/06/29 09:52:47;;;;;;;25.35;13.10;;;23.40;99.90;;;;;;5012150;28;20135;-57
2023/06/29 09:55:13;;;;;;;;;;;23.40;99.90;;;;;;5011562;28;20026;-58
2023/06/29 09:57:50;;;;;;;27.60;14.07;;;23.40;99.90;;;;;;5011570;28;19909;-59
2023/06/29 10:00:16;;;;;;;27.23;13.20;;;23.40;99.90;;;;;;5013197;28;20037;-57
2023/06/29 10:02:42;;;;;;;25.65;12.70;;;23.40;99.90;;;;;;5013058;28;20025;-58
2023/06/29 10:05:11;;;;;;;25.00;13.32;;;23.40;99.90;;;;;;5009084;28;20433;-58
2023/06/29 10:07:37;;;;;;;24.42;11.30;;;23.40;99.90;;;;;;5012479;28;20030;-59
2023/06/29 10:10:05;;;;;;;27.73;12.60;;;23.40;99.90;;;;;;5012777;28;20030;-59
2023/06/29 10:12:34;;;;;;;26.42;12.80;;;23.50;99.90;;;;;;5012865;28;20026;-59
2023/06/29 10:15:08;;;;;;;20.73;12.30;;;23.70;99.90;;;;;;5011437;28;20029;-61
2023/06/29 10:17:42;;;;;;;28.23;12.43;;;24.00;99.90;;;;;;5013026;28;20511;-59
2023/06/29 10:20:09;;;;;;;18.15;10.48;;;24.10;99.90;;;;;;5010210;28;20390;-59
2023/06/29 10:22:37;;;;;;;24.97;13.20;;;24.20;99.90;;;;;;5012579;28;20036;-59
2023/06/29 10:25:07;;;;;;;24.60;12.23;;;24.30;99.90;;;;;;5012852;28;20026;-58
2023/06/29 10:27:34;;;;;;;31.95;12.50;;;24.40;99.90;;;;;;5010304;28;20520;-63
2023/06/29 10:30:04;;;;;;;24.58;12.43;;;24.70;99.90;;;;;;5013097;28;20022;-59
2023/06/29 10:32:40;;;;;;;25.55;12.32;;;24.90;99.90;;;;;;5012312;28;20065;-59
2023/06/29 10:35:10;;;;;;;18.95;11.75;;;25.10;99.90;;;;;;5013068;28;20382;-60
2023/06/29 10:37:50;;;;;;;22.15;12.05;;;25.10;99.90;;;;;;5011445;28;20033;-59
2023/06/29 10:40:17;;;;;;;26.45;11.93;;;25.00;99.90;;;;;;5016908;28;20029;-60
2023/06/29 10:42:43;;;;;;;24.27;13.38;;;24.80;99.90;;;;;;5016989;28;20428;-59
2023/06/29 10:45:18;;;;;;;25.65;11.75;;;24.70;99.90;;;;;;5016558;28;20085;-59
2023/06/29 10:47:56;;;;;;;23.67;12.80;;;24.60;99.90;;;;;;5015314;28;20124;-59
2023/06/29 10:50:24;;;;;;;23.45;11.95;;;24.50;99.90;;;;;;4996974;28;20105;-59
2023/06/29 10:52:50;;;;;;;22.10;12.35;;;24.60;99.90;;;;;;4996833;28;20026;-57
2023/06/29 10:55:26;;;;;;;22.15;12.10;;;24.50;99.90;;;;;;5015020;28;20479;-59
2023/06/29 10:58:06;;;;;;;20.23;12.10;;;24.40;99.90;;;;;;5016682;28;20030;-59
2023/06/29 11:00:32;;;;;;;19.27;11.23;;;24.40;99.90;;;;;;5014887;28;20030;-59
2023/06/29 11:02:59;;;;;;;19.80;11.85;;;24.60;99.90;;;;;;5035671;28;20485;-59
2023/06/29 11:05:25;;;;;;;26.42;12.15;;;25.00;99.90;;;;;;5021101;28;20534;-60
2023/06/29 11:07:52;;;;;;;22.58;11.00;;;25.30;99.90;;;;;;5016420;28;20046;-58
2023/06/29 11:10:22;;;;;;;23.05;11.25;;;25.50;99.90;;;;;;5016485;28;20036;-60
2023/06/29 11:12:54;;;;;;;23.58;12.10;;;25.50;99.90;;;;;;5016368;28;20474;-59
2023/06/29 11:15:21;;;;;;;24.90;11.25;;;25.50;99.90;;;;;;5013351;28;20510;-59
2023/06/29 11:17:49;;;;;;;24.92;12.15;;;25.40;99.90;;;;;;5014520;28;20490;-59
2023/06/29 11:20:17;;;;;;;21.45;10.45;;;25.10;99.90;;;;;;5010045;28;20117;-59
2023/06/29 11:22:45;;;;;;;20.48;10.55;;;24.80;99.90;;;;;;5010111;28;20084;-59
2023/06/29 11:25:14;;;;;;;18.90;9.82;;;24.50;99.90;;;;;;5015441;28;20030;-59
2023/06/29 11:27:49;;;;;;;21.08;10.73;;;24.20;99.90;;;;;;5015946;28;20109;-58
2023/06/29 11:30:14;;;;;;;17.63;9.38;;;24.20;99.90;;;;;;5015786;28;20100;-56
2023/06/29 11:32:41;;;;;;;24.08;10.63;;;24.00;99.90;;;;;;5013557;28;20018;-60
2023/06/29 11:35:10;;;;;;;17.60;9.75;;;23.90;99.90;;;;;;5015679;28;20088;-59
2023/06/29 11:37:37;;;;;;;19.90;10.70;;;23.80;99.90;;;;;;5015519;28;20246;-59
2023/06/29 11:40:10;;;;;;;18.30;9.48;;;23.70;99.90;;;;;;4996050;28;20030;-59
2023/06/29 11:42:36;;;;;;;21.73;10.60;;;23.50;99.90;;;;;;5001950;28;20025;-59
2023/06/29 11:45:06;;;;;;;13.00;8.30;;;23.40;99.90;;;;;;5014524;28;20025;-60
2023/06/29 11:47:33;;;;;;;19.42;9.25;;;23.30;99.90;;;;;;5011524;28;20490;-59
2023/06/29 11:50:00;;;;;;;16.17;8.18;;;23.30;99.90;;;;;;5009913;28;20030;-59
2023/06/29 11:52:32;;;;;;;14.30;7.88;;;23.40;99.90;;;;;;5012772;28;20034;-59
2023/06/29 11:55:00;;;;;;;15.45;7.88;;;23.60;99.90;;;;;;5012115;28;20026;-60
2023/06/29 11:57:26;;;;;;;10.95;6.72;;;23.70;99.90;;;;;;5014353;28;20033;-60
2023/06/29 11:59:52;;;;;;;15.07;6.90;;;23.90;99.90;;;;;;5013697;28;20356;-60
2023/06/29 12:02:19;;;;;;;14.93;7.35;;;24.10;99.90;;;;;;5013083;28;20033;-59
2023/06/29 12:05:03;;;;;;;16.90;7.57;;;24.30;99.90;;;;;;5013296;28;20488;-59
2023/06/29 12:07:42;;;;;;;16.58;8.13;;;24.30;99.90;;;;;;5015408;28;20109;-59
2023/06/29 12:10:13;;;;;;;15.82;8.38;;;24.20;99.90;;;;;;5015179;28;20026;-62
2023/06/29 12:12:45;;;;;;;13.77;8.02;;;24.20;99.90;;;;;;5015334;28;20479;-59
2023/06/29 12:15:24;;;;;;;20.52;8.45;;;24.10;99.90;;;;;;5015434;28;20025;-64
2023/06/29 12:17:50;;;;;;;12.77;7.47;;;23.80;99.90;;;;;;5015031;28;20033;-60
2023/06/29 12:20:21;;;;;;;14.27;7.00;;;23.60;99.90;;;;;;5013684;28;20046;-57
2023/06/29 12:22:49;;;;;;;11.77;6.55;;;23.40;99.90;;;;;;5015213;28;20030;-60
2023/06/29 12:25:46;;;;;;;18.73;7.65;;;23.10;99.90;;;;;;5014762;28;20030;-56
2023/06/29 12:28:12;;;;;;;12.70;7.50;;;23.00;99.90;;;;;;5015101;28;20036;-60
2023/06/29 12:30:38;;;;;;;10.85;6.63;;;23.00;99.90;;;;;;5015025;28;20025;-59